Time;durP1;ratioP1;P1;durP2;ratioP2;P2;SDS_P1;SDS_P2;PMS_P1;PMS_P2;Temp;Humidity;BMP_temperature;BMP_pressure;BME280_temperature;BME280_humidity;BME280_pressure;Samples;Min_cycle;Max_cycle;Signal;HPM_P1;HPM_P2
2023/06/06 00:01:43;;;;;;;7.38;3.47;;;11.70;99.90;;;;;;5028731;28;20267;-67
2023/06/06 00:04:09;;;;;;;10.25;3.33;;;11.80;99.90;;;;;;5011174;28;20041;-66
2023/06/06 00:06:35;;;;;;;9.48;3.58;;;11.70;99.90;;;;;;5013150;28;20049;-67
2023/06/06 00:09:04;;;;;;;8.20;3.70;;;11.70;99.90;;;;;;5044126;28;20037;-68
2023/06/06 00:11:30;;;;;;;11.68;4.07;;;11.70;99.90;;;;;;5047107;28;20267;-67
2023/06/06 00:13:56;;;;;;;6.20;3.42;;;11.70;99.90;;;;;;4998196;28;20059;-67
2023/06/06 00:16:23;;;;;;;6.28;3.05;;;11.70;99.90;;;;;;5042871;28;20063;-67
2023/06/06 00:18:52;;;;;;;9.40;4.35;;;11.70;99.90;;;;;;5043323;28;20045;-67
2023/06/06 00:21:21;;;;;;;12.38;3.40;;;11.70;99.90;;;;;;4997448;28;20041;-67
2023/06/06 00:23:47;;;;;;;8.95;3.55;;;11.70;99.90;;;;;;5012325;28;20071;-67
2023/06/06 00:26:13;;;;;;;9.80;3.90;;;11.70;99.90;;;;;;4996265;28;20048;-67
2023/06/06 00:28:39;;;;;;;9.68;3.97;;;11.70;99.90;;;;;;5044577;28;20077;-66
2023/06/06 00:31:05;;;;;;;10.80;4.03;;;11.70;99.90;;;;;;5012210;28;20132;-66
2023/06/06 00:33:30;;;;;;;8.43;3.20;;;11.70;99.90;;;;;;5042699;28;20041;-68
2023/06/06 00:35:57;;;;;;;13.07;4.20;;;11.70;99.90;;;;;;5012398;28;20049;-65
2023/06/06 00:38:22;;;;;;;6.97;3.58;;;11.70;99.90;;;;;;5029792;28;20052;-67
2023/06/06 00:40:48;;;;;;;7.90;3.50;;;11.70;99.90;;;;;;5044202;28;20252;-67
2023/06/06 00:43:14;;;;;;;7.53;3.30;;;11.70;99.90;;;;;;5030092;28;20071;-66
2023/06/06 00:45:40;;;;;;;8.77;3.60;;;11.70;99.90;;;;;;4996274;28;20041;-67
2023/06/06 00:48:06;;;;;;;5.75;3.10;;;11.70;99.90;;;;;;4996358;28;20083;-67
2023/06/06 00:50:34;;;;;;;8.70;3.30;;;11.60;99.90;;;;;;4987148;28;20030;-66
2023/06/06 00:53:01;;;;;;;13.15;3.53;;;11.60;99.90;;;;;;5044135;28;20042;-67
2023/06/06 00:55:28;;;;;;;9.90;3.63;;;11.60;99.90;;;;;;5012450;28;20361;-67
2023/06/06 00:57:54;;;;;;;5.85;2.60;;;11.60;99.90;;;;;;5010728;28;20134;-67
2023/06/06 01:00:21;;;;;;;8.18;3.58;;;11.60;99.90;;;;;;5011267;28;20318;-67
2023/06/06 01:02:48;;;;;;;10.50;3.35;;;11.50;99.90;;;;;;5012919;28;20052;-67
2023/06/06 01:05:15;;;;;;;7.22;3.28;;;11.50;99.90;;;;;;5044152;28;20044;-67
2023/06/06 01:07:43;;;;;;;11.45;3.17;;;11.50;99.90;;;;;;5047097;28;20073;-67
2023/06/06 01:10:10;;;;;;;10.48;2.85;;;11.50;99.90;;;;;;5043788;28;20080;-67
2023/06/06 01:12:55;;;;;;;12.07;3.05;;;11.50;99.90;;;;;;5011345;28;20129;-67
2023/06/06 01:15:26;;;;;;;11.32;3.40;;;11.50;99.90;;;;;;5028443;28;20052;-67
2023/06/06 01:17:53;;;;;;;10.52;3.50;;;11.40;99.90;;;;;;5045847;28;20699;-67
2023/06/06 01:20:22;;;;;;;10.45;3.83;;;11.40;99.90;;;;;;5010385;28;20105;-66
2023/06/06 01:22:48;;;;;;;10.02;3.45;;;11.40;99.90;;;;;;4995756;28;20037;-66
2023/06/06 01:25:19;;;;;;;8.68;3.20;;;11.40;99.90;;;;;;5048136;28;20040;-66
2023/06/06 01:27:46;;;;;;;9.63;3.33;;;11.40;99.90;;;;;;5016665;28;20548;-66
2023/06/06 01:30:13;;;;;;;7.70;3.40;;;11.40;99.90;;;;;;5048702;28;20172;-67
2023/06/06 01:33:03;;;;;;;8.82;3.65;;;11.40;99.90;;;;;;5016098;28;20045;-67
2023/06/06 01:35:53;;;;;;;11.23;3.55;;;11.40;99.90;;;;;;5017419;28;20041;-67
2023/06/06 01:38:45;;;;;;;9.00;3.85;;;11.40;99.90;;;;;;5026051;28;20136;-67
2023/06/06 01:41:16;;;;;;;7.85;3.15;;;11.40;99.90;;;;;;5023224;28;20337;-67
2023/06/06 01:43:44;;;;;;;11.75;4.10;;;11.40;99.90;;;;;;5015217;28;20047;-67
2023/06/06 01:46:11;;;;;;;8.60;3.20;;;11.40;99.90;;;;;;5015448;28;20522;-67
2023/06/06 01:48:37;;;;;;;8.82;3.50;;;11.40;99.90;;;;;;5015003;28;20067;-67
2023/06/06 01:51:03;;;;;;;7.50;3.20;;;11.40;99.90;;;;;;5015166;28;20523;-66
2023/06/06 01:53:29;;;;;;;9.75;3.22;;;11.40;99.90;;;;;;5047418;28;20079;-67
2023/06/06 01:55:55;;;;;;;8.10;3.17;;;11.40;99.90;;;;;;4999547;28;20299;-66
2023/06/06 01:58:22;;;;;;;9.23;3.35;;;11.40;99.90;;;;;;5015499;28;20045;-66
2023/06/06 02:00:48;;;;;;;12.18;3.33;;;11.40;99.90;;;;;;5015352;28;20053;-66
2023/06/06 02:03:14;;;;;;;12.57;3.80;;;11.40;99.90;;;;;;5014019;28;20045;-66
2023/06/06 02:05:40;;;;;;;7.28;3.10;;;11.40;99.90;;;;;;5014085;28;20053;-66
2023/06/06 02:08:06;;;;;;;11.15;3.58;;;11.40;99.90;;;;;;5014571;28;20037;-67
2023/06/06 02:10:32;;;;;;;9.85;3.40;;;11.40;99.90;;;;;;5045852;28;20076;-67
2023/06/06 02:12:57;;;;;;;8.68;3.80;;;11.40;99.90;;;;;;5034165;28;20416;-66
2023/06/06 02:15:26;;;;;;;9.73;3.85;;;11.50;99.90;;;;;;5016067;28;20518;-67
2023/06/06 02:17:52;;;;;;;12.00;3.70;;;11.40;99.90;;;;;;5028727;28;20037;-66
2023/06/06 02:20:18;;;;;;;9.40;3.88;;;11.50;99.90;;;;;;5031133;28;20372;-67
2023/06/06 02:22:44;;;;;;;9.57;3.58;;;11.50;99.90;;;;;;5020406;28;21163;-65
2023/06/06 02:25:12;;;;;;;8.43;3.25;;;11.40;99.90;;;;;;5036268;28;20295;-65
2023/06/06 02:27:58;;;;;;;8.98;3.13;;;11.40;99.90;;;;;;5037270;28;20049;-66
2023/06/06 02:30:25;;;;;;;9.68;3.75;;;11.50;99.90;;;;;;5019932;28;20076;-65
2023/06/06 02:32:51;;;;;;;9.63;4.05;;;11.50;99.90;;;;;;5053111;28;20416;-65
2023/06/06 02:35:19;;;;;;;11.68;3.75;;;11.50;99.90;;;;;;5023817;28;20268;-65
2023/06/06 02:37:45;;;;;;;7.40;3.20;;;11.50;1.00;;;;;;5019398;28;20922;-66
2023/06/06 02:40:12;;;;;;;8.27;3.45;;;11.50;1.00;;;;;;5036930;28;20574;-67
2023/06/06 02:42:39;;;;;;;6.95;3.50;;;11.50;1.00;;;;;;5019388;28;20175;-67
2023/06/06 02:45:06;;;;;;;10.55;4.00;;;11.50;1.00;;;;;;5020618;28;20057;-66
2023/06/06 02:47:32;;;;;;;8.60;3.15;;;11.50;1.00;;;;;;5018406;28;20647;-67
2023/06/06 02:49:58;;;;;;;8.32;3.15;;;11.60;1.00;;;;;;5037057;28;20068;-68
2023/06/06 02:52:24;;;;;;;9.55;3.10;;;11.60;1.00;;;;;;5021085;28;20120;-67
2023/06/06 02:54:50;;;;;;;10.77;3.20;;;11.60;99.90;;;;;;5018741;28;20153;-66
2023/06/06 02:57:16;;;;;;;9.20;3.40;;;11.60;1.00;;;;;;5052548;28;20052;-66
2023/06/06 02:59:43;;;;;;;9.15;2.70;;;11.60;99.90;;;;;;5003213;28;20052;-67
2023/06/06 03:02:10;;;;;;;8.27;2.97;;;11.60;99.90;;;;;;5036950;28;20483;-66
2023/06/06 03:04:35;;;;;;;11.38;3.65;;;11.60;99.90;;;;;;5021174;28;20469;-66
2023/06/06 03:07:02;;;;;;;8.95;2.88;;;11.60;99.90;;;;;;5053072;28;20037;-66
2023/06/06 03:09:28;;;;;;;11.05;2.90;;;11.60;99.90;;;;;;5019543;28;20045;-67
2023/06/06 03:11:54;;;;;;;7.30;3.05;;;11.60;99.90;;;;;;5020453;28;20042;-65
2023/06/06 03:14:19;;;;;;;7.85;2.75;;;11.60;99.90;;;;;;5005888;28;20033;-67
2023/06/06 03:16:51;;;;;;;10.70;3.13;;;11.60;99.90;;;;;;5019038;28;20450;-66
2023/06/06 03:19:16;;;;;;;10.27;3.50;;;11.60;99.90;;;;;;5052048;28;20046;-67
2023/06/06 03:21:43;;;;;;;11.10;3.17;;;11.70;99.90;;;;;;5052121;28;20048;-66
2023/06/06 03:24:09;;;;;;;14.77;3.53;;;11.60;99.90;;;;;;5019900;28;20048;-67
2023/06/06 03:26:36;;;;;;;9.38;3.63;;;11.70;99.90;;;;;;5037144;28;20069;-66
2023/06/06 03:29:02;;;;;;;13.35;4.43;;;11.60;99.90;;;;;;5019329;28;20213;-66
2023/06/06 03:31:29;;;;;;;14.98;3.78;;;11.70;99.90;;;;;;5019013;28;20393;-67
2023/06/06 03:33:55;;;;;;;11.48;3.88;;;11.70;99.90;;;;;;5053477;28;20045;-67
2023/06/06 03:36:20;;;;;;;13.07;4.00;;;11.70;99.90;;;;;;5040291;28;20075;-67
2023/06/06 03:38:46;;;;;;;10.80;3.53;;;11.60;99.90;;;;;;4997113;28;20056;-66
2023/06/06 03:41:12;;;;;;;16.63;4.43;;;11.70;99.90;;;;;;5020887;28;20563;-67
2023/06/06 03:43:38;;;;;;;10.43;3.80;;;11.70;99.90;;;;;;5018735;28;20457;-67
2023/06/06 03:46:04;;;;;;;12.60;3.85;;;11.60;99.90;;;;;;5052053;28;20226;-67
2023/06/06 03:48:29;;;;;;;15.23;3.65;;;11.70;99.90;;;;;;5018803;28;20538;-67
2023/06/06 03:50:55;;;;;;;15.63;4.82;;;11.70;99.90;;;;;;5019137;28;20038;-66
2023/06/06 03:53:21;;;;;;;9.65;4.38;;;11.70;99.90;;;;;;4997469;28;20045;-66
2023/06/06 03:55:47;;;;;;;12.93;5.05;;;11.80;99.90;;;;;;5028369;28;20999;-66
2023/06/06 03:58:16;;;;;;;16.20;4.72;;;11.80;99.90;;;;;;5012645;28;20045;-66
2023/06/06 04:00:43;;;;;;;13.65;4.18;;;11.90;99.90;;;;;;5013888;28;20144;-65
2023/06/06 04:03:09;;;;;;;11.80;4.15;;;12.00;99.90;;;;;;4997297;28;20037;-66
2023/06/06 04:05:35;;;;;;;8.63;4.00;;;11.90;99.90;;;;;;5046397;28;20351;-65
2023/06/06 04:08:01;;;;;;;14.38;4.28;;;11.90;99.90;;;;;;5045067;28;20512;-66
2023/06/06 04:10:26;;;;;;;13.52;3.70;;;11.90;99.90;;;;;;5032049;28;20044;-65
2023/06/06 04:12:52;;;;;;;12.13;4.20;;;11.90;99.90;;;;;;5036619;28;20501;-66
2023/06/06 04:15:18;;;;;;;15.90;4.30;;;11.90;99.90;;;;;;5035664;28;20895;-66
2023/06/06 04:17:44;;;;;;;9.82;3.67;;;11.90;99.90;;;;;;5004217;28;20598;-66
2023/06/06 04:20:11;;;;;;;11.05;3.80;;;11.80;99.90;;;;;;5021153;28;20037;-65
2023/06/06 04:22:38;;;;;;;13.25;3.97;;;11.80;99.90;;;;;;5052647;28;20353;-66
2023/06/06 04:25:05;;;;;;;11.32;3.63;;;11.80;99.90;;;;;;5017265;28;20037;-66
2023/06/06 04:27:31;;;;;;;12.32;4.03;;;11.80;99.90;;;;;;5036223;28;20291;-66
2023/06/06 04:29:58;;;;;;;11.90;3.85;;;11.80;99.90;;;;;;5020116;28;20049;-66
2023/06/06 04:32:26;;;;;;;8.80;3.47;;;11.80;99.90;;;;;;4996463;28;20186;-66
2023/06/06 04:34:52;;;;;;;9.73;3.63;;;11.80;99.90;;;;;;5019590;28;20055;-66
2023/06/06 04:37:19;;;;;;;10.70;3.80;;;11.90;99.90;;;;;;5036793;28;20148;-66
2023/06/06 04:39:52;;;;;;;9.93;4.07;;;11.90;99.90;;;;;;5003297;28;20704;-67
2023/06/06 04:42:19;;;;;;;9.27;3.35;;;11.90;99.90;;;;;;5034865;28;20067;-67
2023/06/06 04:44:46;;;;;;;11.43;3.45;;;12.00;99.90;;;;;;5035043;28;20096;-68
2023/06/06 04:47:12;;;;;;;14.38;3.55;;;12.00;99.90;;;;;;5036994;28;20037;-66
2023/06/06 04:49:43;;;;;;;9.05;3.33;;;12.00;99.90;;;;;;5036939;28;20033;-65
2023/06/06 04:52:14;;;;;;;11.25;4.05;;;12.00;99.90;;;;;;5021341;28;20077;-65
2023/06/06 04:54:45;;;;;;;8.73;3.50;;;12.00;99.90;;;;;;5035081;28;20573;-66
2023/06/06 04:57:19;;;;;;;14.85;3.53;;;12.00;99.90;;;;;;5037811;28;20124;-67
2023/06/06 04:59:52;;;;;;;8.45;3.13;;;12.10;99.90;;;;;;5055729;28;20111;-66
2023/06/06 05:02:22;;;;;;;11.10;3.58;;;12.10;99.90;;;;;;5024238;28;20384;-65
2023/06/06 05:04:54;;;;;;;8.98;3.20;;;12.10;99.90;;;;;;5023492;28;20267;-68
2023/06/06 05:07:24;;;;;;;12.57;2.85;;;12.10;99.90;;;;;;5023777;28;20053;-67
2023/06/06 05:09:54;;;;;;;8.05;3.03;;;12.10;99.90;;;;;;5032003;28;20126;-66
2023/06/06 05:12:24;;;;;;;10.05;3.10;;;12.10;99.90;;;;;;5039985;28;20049;-66
2023/06/06 05:14:50;;;;;;;9.55;3.28;;;12.10;99.90;;;;;;5006362;28;20281;-66
2023/06/06 05:17:18;;;;;;;7.40;3.17;;;12.10;99.90;;;;;;5058437;28;20250;-68
2023/06/06 05:19:45;;;;;;;9.40;3.40;;;12.20;99.90;;;;;;5023435;28;20041;-67
2023/06/06 05:22:12;;;;;;;10.13;3.50;;;12.30;99.90;;;;;;5006328;28;20048;-67
2023/06/06 05:24:38;;;;;;;8.98;2.80;;;12.40;99.90;;;;;;5023235;28;20122;-65
2023/06/06 05:27:05;;;;;;;7.60;3.10;;;12.50;99.90;;;;;;5003738;28;20168;-67
2023/06/06 05:29:31;;;;;;;7.72;2.70;;;12.70;99.90;;;;;;4983347;28;20058;-67
2023/06/06 05:31:56;;;;;;;8.32;2.97;;;12.80;21.90;;;;;;5046339;28;20041;-68
2023/06/06 05:34:22;;;;;;;7.97;2.22;;;12.90;93.20;;;;;;5030485;28;20095;-67
2023/06/06 05:36:48;;;;;;;8.00;2.25;;;13.20;99.90;;;;;;5016569;28;20037;-66
2023/06/06 05:39:14;;;;;;;11.38;2.70;;;13.40;1.00;;;;;;5022903;28;20040;-68
2023/06/06 05:41:40;;;;;;;9.73;2.58;;;13.30;1.00;;;;;;4984802;28;20056;-66
2023/06/06 05:44:05;;;;;;;9.40;2.58;;;13.10;1.00;;;;;;5039501;28;20045;-66
2023/06/06 05:46:31;;;;;;;7.78;2.67;;;12.90;1.00;;;;;;5024377;28;20388;-66
2023/06/06 05:48:57;;;;;;;7.25;2.88;;;13.00;1.00;;;;;;5022716;28;20207;-66
2023/06/06 05:51:22;;;;;;;7.82;2.38;;;13.20;1.00;;;;;;5004927;28;20653;-66
2023/06/06 05:53:48;;;;;;;6.95;2.03;;;13.50;1.00;;;;;;5053950;28;20049;-66
2023/06/06 05:56:16;;;;;;;9.68;2.10;;;13.60;99.90;;;;;;5053391;28;20036;-66
2023/06/06 05:58:49;;;;;;;10.77;3.10;;;13.60;99.90;;;;;;5019885;28;20205;-66
2023/06/06 06:01:17;;;;;;;10.93;2.70;;;13.60;1.00;;;;;;5002651;28;20053;-65
2023/06/06 06:03:43;;;;;;;13.25;3.22;;;13.50;1.00;;;;;;5051628;28;20100;-65
2023/06/06 06:06:09;;;;;;;8.32;2.90;;;13.50;1.00;;;;;;5036987;28;20114;-65
2023/06/06 06:08:37;;;;;;;13.32;2.80;;;13.60;1.00;;;;;;5004093;28;21749;-66
2023/06/06 06:11:03;;;;;;;7.43;2.15;;;13.50;1.00;;;;;;5048647;28;20139;-66
2023/06/06 06:13:29;;;;;;;11.85;2.50;;;13.60;1.00;;;;;;5015367;28;20727;-66
2023/06/06 06:15:55;;;;;;;11.13;2.75;;;13.90;1.00;;;;;;5047516;28;20213;-66
2023/06/06 06:18:21;;;;;;;7.95;2.42;;;14.10;99.90;;;;;;5015120;28;20038;-67
2023/06/06 06:20:47;;;;;;;8.15;2.50;;;14.10;99.90;;;;;;4997551;28;20051;-66
2023/06/06 06:23:12;;;;;;;10.15;2.58;;;14.00;99.90;;;;;;5030572;28;20088;-67
2023/06/06 06:25:38;;;;;;;9.27;2.85;;;14.00;99.90;;;;;;5050376;28;20404;-66
2023/06/06 06:28:04;;;;;;;9.20;2.92;;;13.90;99.90;;;;;;4997229;28;20550;-67
2023/06/06 06:30:30;;;;;;;9.38;2.70;;;14.10;99.90;;;;;;5013887;28;20698;-66
2023/06/06 06:32:56;;;;;;;8.30;2.55;;;14.20;99.90;;;;;;4998237;28;20053;-66
2023/06/06 06:35:22;;;;;;;9.13;2.67;;;14.60;99.90;;;;;;5013347;28;20055;-65
2023/06/06 06:37:47;;;;;;;7.93;2.47;;;14.90;99.90;;;;;;5015312;28;20037;-66
2023/06/06 06:40:14;;;;;;;7.88;2.35;;;15.20;99.90;;;;;;4998081;28;20041;-66
2023/06/06 06:42:42;;;;;;;7.78;2.60;;;15.10;99.90;;;;;;5029927;28;20782;-66
2023/06/06 06:45:09;;;;;;;5.90;2.25;;;15.10;99.90;;;;;;5014809;28;20045;-66
2023/06/06 06:47:35;;;;;;;11.98;3.10;;;15.00;99.90;;;;;;5013986;28;20033;-66
2023/06/06 06:50:01;;;;;;;9.50;2.42;;;15.20;99.90;;;;;;5013061;28;20048;-66
2023/06/06 06:52:27;;;;;;;8.27;2.63;;;15.40;99.90;;;;;;4997890;28;20048;-67
2023/06/06 06:54:58;;;;;;;11.02;3.50;;;15.40;99.90;;;;;;5006592;28;20041;-67
2023/06/06 06:57:28;;;;;;;7.32;2.60;;;15.50;99.90;;;;;;5031474;28;20320;-67
2023/06/06 06:59:56;;;;;;;9.70;2.70;;;15.50;99.90;;;;;;5013014;28;20427;-67
2023/06/06 07:02:24;;;;;;;8.02;2.47;;;15.60;99.90;;;;;;5023764;28;20501;-66
2023/06/06 07:04:49;;;;;;;7.03;2.38;;;15.70;99.90;;;;;;5046390;28;20814;-66
2023/06/06 07:07:16;;;;;;;10.23;2.63;;;15.90;99.90;;;;;;5000029;28;20033;-66
2023/06/06 07:09:43;;;;;;;9.38;2.90;;;16.30;99.90;;;;;;5019130;28;20602;-66
2023/06/06 07:12:11;;;;;;;8.07;2.83;;;16.50;99.90;;;;;;5018502;28;20040;-66
2023/06/06 07:14:37;;;;;;;10.05;2.00;;;16.50;99.90;;;;;;5018734;28;20116;-66
2023/06/06 07:17:03;;;;;;;7.43;2.47;;;16.50;99.90;;;;;;5018104;28;20098;-67
2023/06/06 07:19:28;;;;;;;6.40;2.63;;;16.50;99.90;;;;;;4996060;28;20051;-66
2023/06/06 07:21:56;;;;;;;7.88;2.20;;;16.70;99.90;;;;;;5050495;28;20384;-66
2023/06/06 07:24:22;;;;;;;8.07;2.25;;;16.70;99.90;;;;;;5051794;28;20037;-66
2023/06/06 07:26:51;;;;;;;7.07;2.53;;;17.00;99.90;;;;;;5018109;28;20503;-66
2023/06/06 07:29:17;;;;;;;6.43;2.22;;;16.80;99.90;;;;;;5035655;28;20041;-66
2023/06/06 07:31:43;;;;;;;7.47;2.40;;;16.80;99.90;;;;;;5002267;28;20087;-65
2023/06/06 07:34:09;;;;;;;6.13;2.10;;;16.50;99.90;;;;;;5049133;28;20308;-66
2023/06/06 07:36:38;;;;;;;5.80;2.08;;;16.70;99.90;;;;;;5049212;28;20061;-66
2023/06/06 07:39:04;;;;;;;6.80;2.60;;;16.70;99.90;;;;;;5034246;28;20049;-67
2023/06/06 07:41:31;;;;;;;6.20;2.00;;;16.70;99.90;;;;;;5000665;28;20043;-67
2023/06/06 07:44:01;;;;;;;9.45;2.53;;;16.60;99.90;;;;;;5050322;28;20067;-65
2023/06/06 07:46:26;;;;;;;6.03;2.33;;;16.50;99.90;;;;;;5031698;28;20041;-66
2023/06/06 07:48:53;;;;;;;4.55;2.03;;;16.30;99.90;;;;;;5034228;28;20114;-67
2023/06/06 07:51:19;;;;;;;7.35;3.17;;;16.50;99.90;;;;;;5016141;28;20037;-66
2023/06/06 07:53:45;;;;;;;5.68;2.58;;;16.50;99.90;;;;;;5015799;28;20102;-66
2023/06/06 07:56:18;;;;;;;6.85;2.65;;;16.50;99.90;;;;;;5049132;28;20680;-66
2023/06/06 07:59:17;;;;;;;5.63;2.53;;;16.70;99.90;;;;;;5058003;28;20048;-65
2023/06/06 08:01:53;;;;;;;6.57;2.72;;;17.00;99.90;;;;;;5052939;28;20056;-65
2023/06/06 08:04:19;;;;;;;8.25;2.50;;;16.90;99.90;;;;;;5014935;28;20033;-66
2023/06/06 08:06:45;;;;;;;5.60;2.03;;;17.00;99.90;;;;;;4999683;28;20102;-65
2023/06/06 08:09:11;;;;;;;6.78;3.00;;;17.00;99.90;;;;;;5032489;28;20076;-66
2023/06/06 08:11:36;;;;;;;8.15;2.92;;;17.10;99.90;;;;;;5047282;28;20128;-65
2023/06/06 08:14:02;;;;;;;6.28;2.35;;;17.20;99.90;;;;;;5015686;28;20049;-66
2023/06/06 08:16:28;;;;;;;7.32;2.65;;;17.10;99.90;;;;;;5014556;28;20046;-66
2023/06/06 08:18:53;;;;;;;6.95;2.95;;;17.30;99.90;;;;;;5015304;28;20150;-67
2023/06/06 08:21:19;;;;;;;5.65;2.35;;;17.30;99.90;;;;;;5049823;28;20699;-66
2023/06/06 08:23:45;;;;;;;5.97;2.13;;;17.40;99.80;;;;;;5013827;28;20308;-66
2023/06/06 08:26:12;;;;;;;6.63;2.28;;;17.40;99.90;;;;;;4999160;28;20125;-68
2023/06/06 08:28:37;;;;;;;7.38;2.63;;;17.50;99.90;;;;;;5032226;28;20080;-66
2023/06/06 08:31:03;;;;;;;7.03;2.65;;;17.50;78.20;;;;;;5015438;28;20431;-67
2023/06/06 08:33:30;;;;;;;5.45;2.00;;;17.60;99.90;;;;;;5014044;28;20071;-66
2023/06/06 08:35:56;;;;;;;5.25;2.00;;;17.60;96.30;;;;;;5046742;28;20046;-67
2023/06/06 08:38:21;;;;;;;5.95;2.38;;;17.70;26.00;;;;;;4999088;28;20317;-66
2023/06/06 08:40:52;;;;;;;10.93;2.20;;;17.80;11.60;;;;;;4990874;28;20734;-67
2023/06/06 08:43:20;;;;;;;6.38;2.50;;;17.80;1.00;;;;;;5014228;28;20090;-67
2023/06/06 08:45:56;;;;;;;7.80;2.95;;;17.60;1.00;;;;;;4997277;28;20045;-66
2023/06/06 08:48:26;;;;;;;6.55;2.10;;;17.80;14.70;;;;;;5031268;28;20467;-67
2023/06/06 08:50:52;;;;;;;6.72;2.28;;;17.90;1.00;;;;;;5045445;28;20139;-67
2023/06/06 08:53:19;;;;;;;8.00;2.45;;;18.10;1.00;;;;;;5011026;28;20128;-67
2023/06/06 08:55:45;;;;;;;5.35;2.35;;;18.20;1.00;;;;;;5045496;28;20435;-67
2023/06/06 08:58:12;;;;;;;6.00;2.30;;;18.30;1.00;;;;;;5027074;28;20057;-67
2023/06/06 09:00:38;;;;;;;6.40;2.17;;;18.30;1.00;;;;;;5005223;28;20084;-67
2023/06/06 09:03:06;;;;;;;6.60;2.30;;;18.40;1.00;;;;;;5026057;28;20164;-67
2023/06/06 09:05:37;;;;;;;6.75;2.30;;;18.40;1.00;;;;;;5010158;28;20136;-67
2023/06/06 09:08:04;;;;;;;6.25;2.38;;;18.40;1.00;;;;;;5011446;28;20379;-67
2023/06/06 09:10:29;;;;;;;6.88;2.17;;;18.50;1.00;;;;;;5043772;28;20045;-67
2023/06/06 09:12:55;;;;;;;7.25;2.63;;;18.50;1.00;;;;;;5046202;28;20033;-68
2023/06/06 09:15:21;;;;;;;9.05;2.60;;;18.70;1.00;;;;;;4994459;28;20256;-66
2023/06/06 09:17:53;;;;;;;5.55;2.17;;;18.60;1.00;;;;;;5011018;28;20087;-66
2023/06/06 09:20:18;;;;;;;7.75;2.30;;;18.60;1.00;;;;;;5028675;28;20360;-67
2023/06/06 09:22:46;;;;;;;5.40;2.30;;;18.70;99.90;;;;;;5044103;28;20543;-67
2023/06/06 09:25:26;;;;;;;7.15;2.40;;;18.70;99.90;;;;;;5011646;28;20065;-66
2023/06/06 09:27:59;;;;;;;7.85;2.50;;;18.60;1.00;;;;;;5045206;28;20403;-67
2023/06/06 09:30:27;;;;;;;7.05;2.47;;;18.60;1.00;;;;;;5010316;28;20277;-67
2023/06/06 09:32:53;;;;;;;10.27;2.42;;;18.80;1.00;;;;;;5045644;28;20103;-67
2023/06/06 09:35:20;;;;;;;7.20;2.78;;;18.90;99.90;;;;;;5028435;28;20324;-67
2023/06/06 09:37:46;;;;;;;7.05;2.75;;;18.90;99.90;;;;;;5009231;28;20048;-67
2023/06/06 09:40:14;;;;;;;6.03;2.30;;;18.80;99.90;;;;;;5045147;28;20086;-67
2023/06/06 09:42:42;;;;;;;6.78;2.53;;;18.90;99.90;;;;;;5009535;28;20046;-66
2023/06/06 09:45:15;;;;;;;7.65;2.28;;;19.00;1.00;;;;;;5015187;28;20390;-67
2023/06/06 09:47:43;;;;;;;7.85;2.90;;;19.10;99.90;;;;;;5046233;28;20155;-67
2023/06/06 09:50:10;;;;;;;5.90;2.47;;;19.00;99.90;;;;;;5014273;28;20041;-67
2023/06/06 09:52:36;;;;;;;6.47;2.72;;;19.00;99.90;;;;;;5015408;28;20041;-67
2023/06/06 09:55:15;;;;;;;9.65;2.60;;;19.30;99.90;;;;;;5046734;28;20077;-67
2023/06/06 09:57:41;;;;;;;5.82;2.15;;;19.30;99.90;;;;;;5015484;28;20515;-68
2023/06/06 10:00:10;;;;;;;8.98;2.70;;;19.10;99.90;;;;;;4998588;28;20045;-68
2023/06/06 10:02:44;;;;;;;8.10;2.75;;;19.20;99.90;;;;;;5046357;28;20041;-68
2023/06/06 10:05:15;;;;;;;9.73;2.88;;;19.00;99.90;;;;;;5047147;28;20033;-68
2023/06/06 10:07:44;;;;;;;11.50;4.07;;;19.10;99.90;;;;;;5014462;28;20085;-68
2023/06/06 10:10:15;;;;;;;6.65;2.50;;;19.30;99.90;;;;;;5030587;28;20056;-68
2023/06/06 10:12:43;;;;;;;6.22;2.92;;;19.40;99.90;;;;;;4999676;28;20048;-68
2023/06/06 10:15:13;;;;;;;6.90;2.58;;;19.20;99.90;;;;;;5013634;28;20658;-68
2023/06/06 10:17:41;;;;;;;10.10;2.83;;;19.50;99.90;;;;;;5012563;28;20598;-68
2023/06/06 10:20:10;;;;;;;10.68;2.75;;;19.40;99.90;;;;;;5013621;28;20087;-67
2023/06/06 10:22:36;;;;;;;8.57;3.33;;;19.50;99.90;;;;;;5012749;28;20141;-67
2023/06/06 10:25:04;;;;;;;8.27;3.15;;;19.40;99.90;;;;;;5029373;28;20041;-67
2023/06/06 10:27:51;;;;;;;8.65;3.25;;;19.40;99.90;;;;;;5014553;28;20037;-67
2023/06/06 10:30:43;;;;;;;7.22;2.55;;;19.60;99.90;;;;;;5048459;28;20045;-67
2023/06/06 10:33:32;;;;;;;7.95;2.90;;;19.30;99.90;;;;;;5009803;28;20142;-68
2023/06/06 10:36:09;;;;;;;6.13;2.70;;;19.20;99.90;;;;;;5046637;28;20097;-68
2023/06/06 10:38:37;;;;;;;6.40;2.67;;;19.40;99.90;;;;;;5024138;28;20696;-68
2023/06/06 10:41:17;;;;;;;8.27;2.55;;;19.20;99.90;;;;;;5013454;28;20132;-67
2023/06/06 10:43:44;;;;;;;7.72;2.47;;;19.30;99.90;;;;;;5045969;28;20828;-68
2023/06/06 10:46:10;;;;;;;4.80;2.42;;;19.30;99.90;;;;;;5046552;28;20048;-68
2023/06/06 10:48:40;;;;;;;7.00;2.60;;;19.50;99.90;;;;;;5013167;28;20103;-68
2023/06/06 10:51:07;;;;;;;7.38;2.47;;;19.50;99.90;;;;;;5014249;28;20451;-67
2023/06/06 10:53:33;;;;;;;7.90;2.60;;;19.70;99.90;;;;;;5045311;28;20095;-68
2023/06/06 10:55:59;;;;;;;5.80;2.13;;;19.70;99.90;;;;;;5012130;28;20382;-68
2023/06/06 10:58:32;;;;;;;8.95;2.53;;;19.70;99.90;;;;;;5047640;28;20814;-67
2023/06/06 11:01:04;;;;;;;8.43;3.05;;;19.50;99.90;;;;;;5013445;28;20604;-67
2023/06/06 11:03:40;;;;;;;10.02;2.50;;;19.80;99.90;;;;;;4997634;28;20114;-67
2023/06/06 11:06:19;;;;;;;7.88;1.77;;;19.80;99.90;;;;;;5046810;28;20041;-67
2023/06/06 11:08:57;;;;;;;8.43;2.63;;;20.30;99.90;;;;;;5012739;28;20525;-68
2023/06/06 11:11:25;;;;;;;7.35;2.42;;;20.20;99.90;;;;;;5013172;28;20091;-68
2023/06/06 11:14:06;;;;;;;6.22;1.95;;;20.20;99.90;;;;;;5013595;28;20580;-68
2023/06/06 11:16:38;;;;;;;5.55;2.20;;;20.30;99.90;;;;;;5011780;28;20454;-68
2023/06/06 11:19:14;;;;;;;5.63;2.15;;;20.20;99.90;;;;;;5046525;28;20076;-68
2023/06/06 11:21:41;;;;;;;7.03;2.30;;;20.10;99.90;;;;;;5007682;28;20080;-68
2023/06/06 11:24:08;;;;;;;4.70;1.80;;;20.00;99.90;;;;;;5046927;28;20280;-68
2023/06/06 11:26:34;;;;;;;9.88;2.55;;;20.10;99.90;;;;;;5014685;28;20045;-68
2023/06/06 11:29:01;;;;;;;5.40;2.40;;;19.80;99.90;;;;;;5045254;28;20049;-68
2023/06/06 11:31:27;;;;;;;9.75;2.60;;;19.60;99.90;;;;;;5007697;28;20252;-68
2023/06/06 11:34:03;;;;;;;8.88;2.65;;;19.80;99.90;;;;;;5013295;28;20048;-67
2023/06/06 11:36:29;;;;;;;9.45;2.40;;;20.00;99.90;;;;;;5046733;28;20044;-68
2023/06/06 11:38:58;;;;;;;7.35;2.58;;;20.10;99.90;;;;;;5045274;28;20048;-67
2023/06/06 11:41:25;;;;;;;7.63;2.20;;;20.20;99.90;;;;;;5012765;28;20568;-67
2023/06/06 11:43:51;;;;;;;10.30;2.70;;;20.20;99.90;;;;;;5047329;28;20425;-68
2023/06/06 11:46:17;;;;;;;7.53;2.25;;;20.30;99.90;;;;;;4992421;28;20364;-68
2023/06/06 11:48:43;;;;;;;5.88;1.95;;;20.00;99.90;;;;;;5013377;28;20045;-67
2023/06/06 11:51:11;;;;;;;9.15;2.40;;;20.20;99.90;;;;;;5047403;28;20099;-68
2023/06/06 11:53:37;;;;;;;5.40;2.15;;;20.40;99.90;;;;;;5013959;28;20048;-68
2023/06/06 11:56:04;;;;;;;8.85;2.33;;;20.50;99.90;;;;;;5045196;28;20045;-68
2023/06/06 11:58:30;;;;;;;5.22;2.22;;;20.40;99.90;;;;;;5013381;28;20099;-67
2023/06/06 12:00:58;;;;;;;6.03;2.10;;;20.30;99.90;;;;;;4996673;28;20264;-67
2023/06/06 12:03:24;;;;;;;7.38;2.08;;;20.30;99.90;;;;;;5029697;28;20045;-69
2023/06/06 12:06:01;;;;;;;6.78;2.10;;;20.60;99.90;;;;;;5013977;28;20414;-67
2023/06/06 12:08:27;;;;;;;9.98;2.30;;;20.60;99.90;;;;;;5011892;28;20463;-68
2023/06/06 12:10:53;;;;;;;8.27;2.17;;;20.70;99.90;;;;;;5013325;28;20466;-67
2023/06/06 12:13:32;;;;;;;7.32;2.03;;;20.10;99.90;;;;;;5047277;28;20045;-68
2023/06/06 12:15:58;;;;;;;7.78;2.42;;;20.20;99.90;;;;;;5014227;28;20496;-68
2023/06/06 12:18:24;;;;;;;6.63;2.13;;;20.20;99.90;;;;;;5030570;28;20038;-68
2023/06/06 12:20:50;;;;;;;9.38;2.55;;;20.30;99.90;;;;;;4997328;28;20185;-67
2023/06/06 12:23:26;;;;;;;8.07;2.35;;;20.20;99.90;;;;;;5029828;28;20052;-68
2023/06/06 12:25:59;;;;;;;9.00;2.30;;;20.70;99.90;;;;;;4990784;28;20263;-67
2023/06/06 12:28:25;;;;;;;;;;;20.70;99.90;;;;;;5041468;28;20103;-68
2023/06/06 12:30:54;;;;;;;7.43;2.35;;;20.80;99.90;;;;;;5030146;28;19921;-68
2023/06/06 12:33:20;;;;;;;8.80;2.80;;;20.80;99.90;;;;;;4998318;28;20518;-67
2023/06/06 12:35:48;;;;;;;8.40;2.30;;;20.50;99.90;;;;;;5013744;28;20056;-68
2023/06/06 12:38:23;;;;;;;6.22;2.05;;;20.20;99.90;;;;;;5007791;28;20398;-67
2023/06/06 12:40:55;;;;;;;9.40;2.38;;;20.20;99.90;;;;;;5029375;28;20041;-67
2023/06/06 12:43:21;;;;;;;8.82;2.45;;;20.10;99.90;;;;;;5013775;28;20049;-67
2023/06/06 12:45:47;;;;;;;8.68;2.17;;;20.40;99.90;;;;;;5014369;28;20090;-68
2023/06/06 12:48:13;;;;;;;11.13;2.38;;;20.30;99.90;;;;;;5048103;28;20157;-67
2023/06/06 12:50:43;;;;;;;6.65;1.95;;;20.50;99.90;;;;;;5013524;28;20056;-67